createdAt,value
2019-05-11T00:01:44.763Z,15.43
2019-05-11T00:04:10.635Z,16.03
2019-05-11T00:06:36.505Z,15.97
2019-05-11T00:09:04.959Z,15.90
2019-05-11T00:11:30.817Z,16.53
2019-05-11T00:13:56.699Z,18.10
2019-05-11T00:16:23.394Z,17.23
2019-05-11T00:18:49.262Z,17.63
2019-05-11T00:21:15.115Z,16.87
2019-05-11T00:23:40.979Z,17.47
2019-05-11T00:26:06.846Z,17.87
2019-05-11T00:28:32.689Z,18.00
2019-05-11T00:30:58.549Z,17.63
2019-05-11T00:33:24.416Z,16.90
2019-05-11T00:35:50.304Z,18.50
2019-05-11T00:38:16.158Z,17.63
2019-05-11T00:40:42.009Z,18.67
2019-05-11T00:43:07.856Z,19.47
2019-05-11T00:45:33.718Z,20.10
2019-05-11T00:47:59.569Z,20.50
2019-05-11T00:50:38.167Z,20.07
2019-05-11T00:52:53.202Z,18.53
2019-05-11T00:55:19.065Z,19.23
2019-05-11T00:57:44.913Z,21.40
2019-05-11T01:00:11.889Z,20.40
2019-05-11T01:02:37.978Z,20.27
2019-05-11T01:05:04.951Z,21.23
2019-05-11T01:07:30.842Z,23.07
2019-05-11T01:09:56.661Z,23.00
2019-05-11T01:12:22.523Z,22.77
2019-05-11T01:14:48.458Z,26.50
2019-05-11T01:17:14.378Z,26.30
2019-05-11T01:19:40.223Z,27.80
2019-05-11T01:22:06.195Z,27.40
2019-05-11T01:24:32.351Z,27.70
2019-05-11T01:26:58.195Z,26.70
2019-05-11T01:29:24.061Z,25.50
2019-05-11T01:31:49.918Z,25.97
2019-05-11T01:34:15.787Z,24.87
2019-05-11T01:36:41.662Z,25.70
2019-05-11T01:39:07.508Z,25.87
2019-05-11T01:41:33.372Z,26.87
2019-05-11T01:43:59.232Z,25.70
2019-05-11T01:46:25.085Z,24.87
2019-05-11T01:48:50.977Z,25.73
2019-05-11T01:51:16.811Z,24.60
2019-05-11T01:53:42.659Z,25.43
2019-05-11T01:56:08.524Z,26.23
2019-05-11T01:58:34.422Z,24.33
2019-05-11T02:01:00.281Z,23.07
2019-05-11T02:03:26.148Z,23.33
2019-05-11T02:05:52.007Z,23.33
2019-05-11T02:08:17.870Z,23.50
2019-05-11T02:10:43.713Z,25.13
2019-05-11T02:13:09.578Z,23.50
2019-05-11T02:15:35.425Z,24.40
2019-05-11T02:18:01.321Z,24.70
2019-05-11T02:20:27.167Z,25.17
2019-05-11T02:22:53.035Z,24.60
2019-05-11T02:25:18.878Z,22.43
2019-05-11T02:27:44.749Z,23.07
2019-05-11T02:30:11.407Z,23.93
2019-05-11T02:32:37.294Z,22.03
2019-05-11T02:35:06.151Z,22.37
2019-05-11T02:37:31.998Z,23.30
2019-05-11T02:39:57.849Z,21.20
2019-05-11T02:42:23.723Z,20.37
2019-05-11T02:44:49.608Z,21.77
2019-05-11T02:47:15.445Z,19.47
2019-05-11T02:49:41.289Z,19.37
2019-05-11T02:52:08.070Z,20.50
2019-05-11T02:54:34.126Z,20.50
2019-05-11T02:56:59.990Z,18.93
2019-05-11T02:59:29.653Z,18.27
2019-05-11T03:01:53.625Z,19.20
2019-05-11T03:04:19.472Z,18.57
2019-05-11T03:06:45.334Z,19.37
2019-05-11T03:09:11.217Z,16.60
2019-05-11T03:11:54.001Z,16.20
2019-05-11T03:14:04.837Z,14.33
2019-05-11T03:16:30.700Z,16.43
2019-05-11T03:18:56.564Z,15.83
2019-05-11T03:21:22.410Z,15.23
2019-05-11T03:23:49.112Z,15.63
2019-05-11T03:26:14.963Z,14.20
2019-05-11T03:28:40.842Z,14.33
2019-05-11T03:31:06.707Z,14.70
2019-05-11T03:33:32.549Z,13.53
2019-05-11T03:35:58.413Z,15.70
2019-05-11T03:38:24.262Z,14.27
2019-05-11T03:40:50.137Z,15.10
2019-05-11T03:43:16.003Z,13.93
2019-05-11T03:45:41.842Z,14.87
2019-05-11T03:48:07.685Z,14.73
2019-05-11T03:50:33.552Z,15.50
2019-05-11T03:52:59.405Z,15.90
2019-05-11T03:55:25.301Z,15.50
2019-05-11T03:57:51.114Z,15.70
2019-05-11T04:00:17.177Z,14.37
2019-05-11T04:02:43.026Z,15.03
2019-05-11T04:05:09.217Z,14.80
2019-05-11T04:07:35.070Z,16.23
2019-05-11T04:10:00.952Z,15.37
2019-05-11T04:12:34.708Z,14.50
2019-05-11T04:14:54.611Z,16.00
2019-05-11T04:17:21.866Z,15.77
2019-05-11T04:19:48.536Z,16.83
2019-05-11T04:22:14.388Z,15.30
2019-05-11T04:24:40.261Z,15.73
2019-05-11T04:27:06.137Z,14.30
2019-05-11T04:29:31.985Z,14.43
2019-05-11T04:31:57.864Z,13.60
2019-05-11T04:34:23.744Z,13.60
2019-05-11T04:36:49.591Z,13.13
2019-05-11T04:39:15.449Z,13.33
2019-05-11T04:41:41.297Z,13.20
2019-05-11T04:44:07.149Z,13.27
2019-05-11T04:46:33.033Z,12.63
2019-05-11T04:48:58.881Z,12.77
2019-05-11T04:51:24.725Z,12.70
2019-05-11T04:53:50.611Z,12.00
2019-05-11T04:56:16.466Z,12.30
2019-05-11T04:58:42.331Z,11.90
2019-05-11T05:01:08.214Z,10.33
2019-05-11T05:03:40.728Z,11.03
2019-05-11T05:06:21.269Z,11.37
2019-05-11T05:08:29.628Z,11.77
2019-05-11T05:10:58.638Z,10.63
2019-05-11T05:13:29.228Z,9.90
2019-05-11T05:15:51.017Z,9.73
2019-05-11T05:18:16.873Z,10.50
2019-05-11T05:20:43.986Z,9.87
2019-05-11T05:23:10.091Z,9.30
2019-05-11T05:25:35.959Z,9.93
2019-05-11T05:28:02.670Z,9.20
2019-05-11T05:30:28.514Z,10.00
2019-05-11T05:32:54.395Z,9.50
2019-05-11T05:35:20.268Z,10.13
2019-05-11T05:37:46.127Z,9.07
2019-05-11T05:40:12.181Z,10.07
2019-05-11T05:42:38.153Z,8.23
2019-05-11T05:45:05.913Z,9.80
2019-05-11T05:47:31.781Z,9.33
2019-05-11T05:49:57.644Z,9.53
2019-05-11T05:52:23.507Z,9.13
2019-05-11T05:54:49.360Z,10.07
2019-05-11T05:57:15.232Z,8.60
2019-05-11T05:59:41.102Z,9.70
2019-05-11T06:02:06.957Z,9.20
2019-05-11T06:04:32.822Z,8.17
2019-05-11T06:06:58.697Z,9.27
2019-05-11T06:09:24.551Z,8.93
2019-05-11T06:11:50.398Z,10.53
2019-05-11T06:14:16.276Z,9.27
2019-05-11T06:16:42.160Z,9.00
2019-05-11T06:19:08.028Z,9.27
2019-05-11T06:21:33.869Z,9.23
2019-05-11T06:24:06.150Z,9.20
2019-05-11T06:26:27.552Z,9.13
2019-05-11T06:28:53.444Z,9.20
2019-05-11T06:31:19.294Z,9.13
2019-05-11T06:33:45.208Z,9.53
2019-05-11T06:36:11.053Z,9.17
2019-05-11T06:38:36.920Z,10.00
2019-05-11T06:41:02.773Z,9.87
2019-05-11T06:43:28.693Z,9.03
2019-05-11T06:45:54.537Z,10.07
2019-05-11T06:48:20.456Z,9.50
2019-05-11T06:50:46.372Z,10.03
2019-05-11T06:53:12.243Z,9.30
2019-05-11T06:55:38.095Z,9.30
2019-05-11T06:58:04.130Z,9.70
2019-05-11T07:00:30.049Z,10.10
2019-05-11T07:02:55.882Z,9.73
2019-05-11T07:05:21.750Z,8.80
2019-05-11T07:07:48.108Z,9.57
2019-05-11T07:10:14.377Z,8.13
2019-05-11T07:12:40.246Z,8.87
2019-05-11T07:15:06.807Z,8.30
2019-05-11T07:17:32.669Z,8.00
2019-05-11T07:19:58.543Z,8.23
2019-05-11T07:22:24.705Z,8.20
2019-05-11T07:24:50.555Z,8.80
2019-05-11T07:27:16.419Z,8.80
2019-05-11T07:29:42.306Z,8.57
2019-05-11T07:32:20.016Z,8.70
2019-05-11T07:34:38.222Z,8.70
2019-05-11T07:37:03.689Z,8.50
2019-05-11T07:39:29.542Z,7.60
2019-05-11T07:41:55.411Z,7.47
2019-05-11T07:44:35.037Z,8.33
2019-05-11T07:46:49.033Z,8.57
2019-05-11T07:49:14.889Z,7.83
2019-05-11T07:51:40.736Z,8.80
2019-05-11T07:54:08.413Z,16.30
2019-05-11T07:56:34.362Z,8.67
2019-05-11T07:59:00.215Z,8.17
2019-05-11T08:01:28.218Z,8.57
2019-05-11T08:03:53.834Z,11.87
2019-05-11T08:06:19.700Z,8.80
2019-05-11T08:08:45.552Z,7.63
2019-05-11T08:11:11.409Z,8.40
2019-05-11T08:13:38.889Z,7.67
2019-05-11T08:16:04.969Z,7.03
2019-05-11T08:18:30.818Z,7.07
2019-05-11T08:20:58.289Z,7.30
2019-05-11T08:23:24.336Z,6.90
2019-05-11T08:25:50.220Z,7.17
2019-05-11T08:28:18.189Z,6.63
2019-05-11T08:30:43.848Z,6.70
2019-05-11T08:33:09.720Z,6.67
2019-05-11T08:35:35.570Z,5.97
2019-05-11T08:38:01.426Z,6.50
2019-05-11T08:40:28.873Z,6.60
2019-05-11T08:42:54.941Z,6.47
2019-05-11T08:45:24.572Z,6.30
2019-05-11T08:47:48.736Z,6.70
2019-05-11T08:50:15.465Z,6.60
2019-05-11T08:52:41.496Z,6.13
2019-05-11T08:55:08.507Z,6.53
2019-05-11T08:57:34.514Z,6.57
2019-05-11T09:00:00.382Z,6.83
2019-05-11T09:02:27.820Z,6.20
2019-05-11T09:04:53.939Z,7.03
2019-05-11T09:07:19.800Z,6.33
2019-05-11T09:09:45.662Z,5.33
2019-05-11T09:12:11.525Z,6.73
2019-05-11T09:14:38.690Z,6.37
2019-05-11T09:17:04.717Z,6.93
2019-05-11T09:19:30.577Z,6.10
2019-05-11T09:21:58.704Z,5.47
2019-05-11T09:24:24.196Z,5.70
2019-05-11T09:26:50.068Z,5.83
2019-05-11T09:29:17.997Z,5.67
2019-05-11T09:31:44.509Z,5.50
2019-05-11T09:34:10.372Z,5.40
2019-05-11T09:36:38.525Z,5.20
2019-05-11T09:39:08.260Z,4.87
2019-05-11T09:41:33.951Z,4.63
2019-05-11T09:43:59.804Z,4.93
2019-05-11T09:46:27.751Z,5.87
2019-05-11T09:48:53.424Z,5.23
2019-05-11T09:51:19.303Z,5.43
2019-05-11T09:53:45.162Z,5.17
2019-05-11T09:56:11.031Z,5.60
2019-05-11T09:58:38.668Z,5.20
2019-05-11T10:01:04.670Z,5.00
2019-05-11T10:03:30.597Z,4.60
2019-05-11T10:05:57.954Z,5.10
2019-05-11T10:08:24.277Z,4.70
2019-05-11T10:10:52.476Z,5.60
2019-05-11T10:13:18.687Z,5.70
2019-05-11T10:15:59.297Z,5.50
2019-05-11T10:18:12.347Z,4.80
2019-05-11T10:20:39.217Z,5.00
2019-05-11T10:23:05.253Z,4.53
2019-05-11T10:25:31.133Z,5.07
2019-05-11T10:27:57.998Z,4.73
2019-05-11T10:30:23.957Z,4.43
2019-05-11T10:32:50.150Z,5.13
2019-05-11T10:35:18.172Z,4.50
2019-05-11T10:37:43.877Z,4.50
2019-05-11T10:40:12.075Z,4.43
2019-05-11T10:42:38.045Z,4.57
2019-05-11T10:45:05.565Z,4.70
2019-05-11T10:47:31.389Z,5.17
2019-05-11T10:49:57.896Z,4.47
2019-05-11T10:52:24.026Z,4.80
2019-05-11T10:54:49.938Z,5.03
2019-05-11T10:57:15.785Z,4.63
2019-05-11T10:59:41.741Z,4.10
2019-05-11T11:02:08.098Z,4.50
2019-05-11T11:04:34.308Z,4.17
2019-05-11T11:07:00.314Z,4.23
2019-05-11T11:09:28.162Z,4.77
2019-05-11T11:11:54.208Z,4.57
2019-05-11T11:14:20.077Z,4.00
2019-05-11T11:16:47.846Z,4.63
2019-05-11T11:19:13.682Z,4.27
2019-05-11T11:21:39.575Z,3.80
2019-05-11T11:24:07.500Z,4.27
2019-05-11T11:26:33.179Z,4.00
2019-05-11T11:28:59.050Z,3.50
2019-05-11T11:31:24.905Z,3.53
2019-05-11T11:33:50.750Z,4.13
2019-05-11T11:36:17.957Z,3.50
2019-05-11T11:38:43.970Z,3.30
2019-05-11T11:41:09.826Z,3.40
2019-05-11T11:43:37.640Z,3.50
2019-05-11T11:46:03.471Z,3.23
2019-05-11T11:48:29.353Z,2.90
2019-05-11T11:50:55.201Z,2.60
2019-05-11T11:53:21.069Z,3.53
2019-05-11T11:55:48.179Z,3.33
2019-05-11T11:58:14.169Z,2.60
2019-05-11T12:00:40.097Z,2.83
2019-05-11T12:03:08.009Z,3.40
2019-05-11T12:05:33.821Z,3.13
2019-05-11T12:07:59.698Z,2.80
2019-05-11T12:10:25.578Z,3.00
2019-05-11T12:12:51.433Z,3.00
2019-05-11T12:15:17.820Z,3.60
2019-05-11T12:17:43.748Z,3.07
2019-05-11T12:20:09.692Z,3.10
2019-05-11T12:22:35.579Z,3.60
2019-05-11T12:25:01.442Z,2.87
2019-05-11T12:27:28.692Z,2.53
2019-05-11T12:29:54.802Z,3.30
2019-05-11T12:32:23.422Z,3.00
2019-05-11T12:34:49.304Z,2.60
2019-05-11T12:37:15.239Z,2.93
2019-05-11T12:39:41.087Z,3.37
2019-05-11T12:42:08.593Z,4.17
2019-05-11T12:44:34.602Z,4.10
2019-05-11T12:47:00.469Z,4.17
2019-05-11T12:49:28.668Z,3.60
2019-05-11T12:51:54.173Z,2.97
2019-05-11T12:54:20.033Z,3.13
2019-05-11T12:56:45.888Z,3.83
2019-05-11T12:59:11.754Z,3.80
2019-05-11T13:01:38.098Z,3.40
2019-05-11T13:04:04.168Z,3.97
2019-05-11T13:06:30.043Z,3.70
2019-05-11T13:08:55.898Z,3.40
2019-05-11T13:11:21.757Z,4.10
2019-05-11T13:13:48.361Z,3.43
2019-05-11T13:16:14.585Z,2.87
2019-05-11T13:18:40.443Z,3.63
2019-05-11T13:21:07.713Z,3.40
2019-05-11T13:23:33.660Z,3.67
2019-05-11T13:25:59.529Z,2.90
2019-05-11T13:28:25.379Z,3.20
2019-05-11T13:30:51.246Z,2.63
2019-05-11T13:33:19.076Z,2.90
2019-05-11T13:35:45.006Z,3.17
2019-05-11T13:38:10.875Z,3.70
2019-05-11T13:40:38.178Z,3.37
2019-05-11T13:43:04.386Z,3.13
2019-05-11T13:50:24.405Z,3.30
2019-05-11T13:52:50.288Z,3.37
2019-05-11T13:55:17.891Z,2.90
2019-05-11T13:57:43.919Z,2.40
2019-05-11T14:00:10.185Z,2.57
2019-05-11T14:02:37.992Z,3.03
2019-05-11T14:05:06.108Z,3.00
2019-05-11T14:07:31.966Z,3.17
2019-05-11T14:09:58.893Z,2.50
2019-05-11T14:12:24.886Z,2.40
2019-05-11T14:14:50.746Z,2.20
2019-05-11T14:17:18.675Z,2.23
2019-05-11T14:19:44.400Z,2.30
2019-05-11T14:22:10.267Z,2.63
2019-05-11T14:24:37.607Z,2.43
2019-05-11T14:27:03.596Z,2.03
2019-05-11T14:29:29.461Z,2.43
2019-05-11T14:31:55.304Z,2.40
2019-05-11T14:34:21.677Z,1.97
2019-05-11T14:36:48.139Z,1.83
2019-05-11T14:39:13.985Z,2.13
2019-05-11T14:41:39.849Z,2.17
2019-05-11T14:44:05.789Z,2.13
2019-05-11T14:46:31.696Z,1.77
2019-05-11T14:48:58.547Z,2.00
2019-05-11T14:51:24.416Z,2.20
2019-05-11T14:53:50.299Z,3.40
2019-05-11T14:56:18.758Z,2.30
2019-05-11T14:58:43.906Z,2.53
2019-05-11T15:01:09.764Z,2.40
2019-05-11T15:03:37.861Z,2.30
2019-05-11T15:06:03.390Z,2.73
2019-05-11T15:08:29.249Z,2.33
2019-05-11T15:10:55.158Z,2.20
2019-05-11T15:13:21.054Z,1.87
2019-05-11T15:15:48.745Z,1.90
2019-05-11T15:18:14.657Z,2.40
2019-05-11T15:20:40.522Z,1.93
2019-05-11T15:23:08.619Z,2.00
2019-05-11T15:25:34.199Z,2.07
2019-05-11T15:28:00.054Z,1.70
2019-05-11T15:30:25.908Z,2.53
2019-05-11T15:32:51.759Z,2.67
2019-05-11T15:35:18.693Z,2.07
2019-05-11T15:37:44.888Z,1.60
2019-05-11T15:40:15.819Z,2.00
2019-05-11T15:42:42.024Z,2.00
2019-05-11T15:45:10.612Z,1.60
2019-05-11T15:47:37.734Z,2.13
2019-05-11T15:50:08.140Z,1.60
2019-05-11T15:52:33.741Z,1.83
2019-05-11T15:54:59.598Z,1.80
2019-05-11T15:57:25.484Z,1.40
2019-05-11T15:59:51.358Z,1.40
2019-05-11T16:02:17.977Z,1.80
2019-05-11T16:04:43.917Z,1.40
2019-05-11T16:07:09.792Z,1.67
2019-05-11T16:09:37.886Z,1.83
2019-05-11T16:12:03.427Z,1.50
2019-05-11T16:14:29.293Z,1.47
2019-05-11T16:16:55.204Z,1.47
2019-05-11T16:19:21.074Z,1.57
2019-05-11T16:21:46.939Z,1.37
2019-05-11T16:24:12.786Z,1.60
2019-05-11T16:26:38.990Z,1.30
2019-05-11T16:29:04.834Z,1.40
2019-05-11T16:31:30.704Z,1.10
2019-05-11T16:33:58.762Z,1.20
2019-05-11T16:36:24.348Z,1.63
2019-05-11T16:38:50.413Z,1.37
2019-05-11T16:41:17.897Z,0.97
2019-05-11T16:43:44.045Z,1.30
2019-05-11T16:46:09.897Z,1.27
2019-05-11T16:48:38.127Z,1.50
2019-05-11T16:51:03.529Z,1.47
2019-05-11T16:53:29.412Z,1.17
2019-05-11T16:55:57.595Z,1.33
2019-05-11T16:58:23.131Z,1.43
2019-05-11T17:00:49.324Z,1.10
2019-05-11T17:03:15.273Z,1.10
2019-05-11T17:05:41.146Z,1.47
2019-05-11T17:08:08.114Z,1.30
2019-05-11T17:10:34.071Z,1.20
2019-05-11T17:12:59.924Z,1.23
2019-05-11T17:15:25.780Z,1.20
2019-05-11T17:17:51.636Z,2.03
2019-05-11T17:20:18.742Z,1.27
2019-05-11T17:22:44.948Z,1.60
2019-05-11T17:25:10.806Z,1.37
2019-05-11T17:27:37.691Z,1.40
2019-05-11T17:30:08.637Z,1.13
2019-05-11T17:32:35.105Z,1.90
2019-05-11T17:35:01.183Z,1.60
2019-05-11T17:37:28.603Z,1.40
2019-05-11T17:39:54.708Z,1.70
2019-05-11T17:42:20.585Z,1.40
2019-05-11T17:44:48.411Z,1.60
2019-05-11T17:47:14.209Z,1.30
2019-05-11T17:49:40.091Z,1.67
2019-05-11T17:52:08.011Z,1.50
2019-05-11T17:54:33.692Z,1.43
2019-05-11T17:56:59.590Z,1.30
2019-05-11T17:59:27.886Z,1.70
2019-05-11T18:01:53.150Z,1.40
2019-05-11T18:04:19.015Z,1.43
2019-05-11T18:06:44.873Z,1.33
2019-05-11T18:09:10.734Z,1.43
2019-05-11T18:11:38.058Z,2.10
2019-05-11T18:14:04.391Z,1.30
2019-05-11T18:16:30.243Z,2.07
2019-05-11T18:18:58.335Z,1.87
2019-05-11T18:21:23.908Z,1.40
2019-05-11T18:23:49.773Z,1.23
2019-05-11T18:26:17.938Z,1.30
2019-05-11T18:28:43.409Z,1.27
2019-05-11T18:31:09.270Z,1.00
2019-05-11T18:33:35.166Z,1.27
2019-05-11T18:36:01.019Z,1.57
2019-05-11T18:38:27.625Z,1.37
2019-05-11T18:40:53.674Z,1.20
2019-05-11T18:43:19.541Z,1.40
2019-05-11T18:45:45.402Z,1.37
2019-05-11T18:48:11.295Z,1.77
2019-05-11T18:50:38.409Z,1.23
2019-05-11T18:53:04.517Z,1.23
2019-05-11T18:55:30.484Z,1.73
2019-05-11T18:57:58.079Z,1.00
2019-05-11T19:00:24.016Z,1.40
2019-05-11T19:02:50.098Z,1.00
2019-05-11T19:05:18.066Z,1.47
2019-05-11T19:07:43.806Z,1.13
2019-05-11T19:10:09.873Z,1.60
2019-05-11T19:12:37.699Z,1.13
2019-05-11T19:15:07.726Z,0.73
2019-05-11T19:17:33.757Z,1.60
2019-05-11T19:19:59.648Z,1.07
2019-05-11T19:22:25.537Z,1.07
2019-05-11T19:24:51.390Z,1.13
2019-05-11T19:27:18.567Z,1.10
2019-05-11T19:29:44.629Z,1.50
2019-05-11T19:32:11.149Z,1.50
2019-05-11T19:34:38.777Z,1.10
2019-05-11T19:37:04.846Z,1.07
2019-05-11T19:39:30.709Z,0.97
2019-05-11T19:41:58.098Z,1.23
2019-05-11T19:44:23.976Z,0.90
2019-05-11T19:46:49.843Z,1.13
2019-05-11T19:49:15.713Z,1.30
2019-05-11T19:51:42.516Z,1.20
2019-05-11T19:54:08.627Z,1.40
2019-05-11T19:56:34.578Z,1.07
2019-05-11T19:59:00.437Z,1.47
2019-05-11T20:01:27.928Z,1.20
2019-05-11T20:03:53.993Z,1.10
2019-05-11T20:06:19.854Z,1.13
2019-05-11T20:08:45.757Z,1.00
2019-05-11T20:11:11.617Z,1.37
2019-05-11T20:13:38.811Z,1.23
2019-05-11T20:16:04.890Z,1.00
2019-05-11T20:18:30.766Z,1.10
2019-05-11T20:20:56.730Z,1.20
2019-05-11T20:23:22.594Z,1.50
2019-05-11T20:25:48.602Z,1.30
2019-05-11T20:28:14.478Z,1.73
2019-05-11T20:30:40.344Z,1.10
2019-05-11T20:33:08.568Z,1.57
2019-05-11T20:35:34.033Z,1.40
2019-05-11T20:37:59.928Z,1.17
2019-05-11T20:40:25.801Z,1.37
2019-05-11T20:42:51.694Z,1.50
2019-05-11T20:45:18.524Z,1.60
2019-05-11T20:47:44.908Z,1.60
2019-05-11T20:50:10.913Z,1.50
2019-05-11T20:52:38.966Z,1.30
2019-05-11T20:55:05.436Z,1.20
2019-05-11T20:57:31.296Z,1.30
2019-05-11T20:59:57.573Z,1.40
2019-05-11T21:02:23.509Z,1.10
2019-05-11T21:04:49.399Z,1.40
2019-05-11T21:07:15.252Z,1.50
2019-05-11T21:09:41.129Z,1.47
2019-05-11T21:12:08.184Z,1.10
2019-05-11T21:14:34.134Z,1.43
2019-05-11T21:17:00.021Z,1.50
2019-05-11T21:19:28.169Z,1.20
2019-05-11T21:21:54.033Z,1.27
2019-05-11T21:24:19.998Z,1.10
2019-05-11T21:26:47.883Z,1.77
2019-05-11T21:29:13.604Z,1.47
2019-05-11T21:31:40.756Z,0.93
2019-05-11T21:34:08.204Z,1.60
2019-05-11T21:36:34.181Z,1.30
2019-05-11T21:39:00.047Z,1.53
2019-05-11T21:41:28.223Z,1.77
2019-05-11T21:43:53.667Z,1.50
2019-05-11T21:46:19.574Z,1.77
2019-05-11T21:48:47.668Z,1.53
2019-05-11T21:51:13.186Z,1.47
2019-05-11T21:53:39.219Z,2.10
2019-05-11T21:56:05.080Z,1.57
2019-05-11T21:58:30.938Z,1.70
2019-05-11T22:00:56.991Z,1.87
2019-05-11T22:03:22.851Z,1.87
2019-05-11T22:05:48.714Z,2.20
2019-05-11T22:08:14.592Z,1.83
2019-05-11T22:10:40.441Z,1.87
2019-05-11T22:13:06.322Z,1.60
2019-05-11T22:15:32.170Z,2.07
2019-05-11T22:17:58.531Z,1.80
2019-05-11T22:20:24.602Z,1.60
2019-05-11T22:22:50.462Z,1.90
2019-05-11T22:25:18.378Z,1.90
2019-05-11T22:27:44.069Z,1.43
2019-05-11T22:30:10.529Z,1.90
2019-05-11T22:32:38.372Z,2.27
2019-05-11T22:35:08.267Z,2.03
2019-05-11T22:37:34.104Z,1.97
2019-05-11T22:39:59.977Z,1.90
2019-05-11T22:42:28.029Z,1.90
2019-05-11T22:44:53.595Z,1.97
2019-05-11T22:47:19.485Z,2.43
2019-05-11T22:49:45.323Z,2.40
2019-05-11T22:52:11.182Z,2.23
2019-05-11T22:54:38.315Z,2.33
2019-05-11T22:57:04.380Z,2.23
2019-05-11T22:59:30.235Z,2.00
2019-05-11T23:01:56.084Z,2.20
2019-05-11T23:04:21.943Z,2.97
2019-05-11T23:06:47.853Z,3.00
2019-05-11T23:09:13.643Z,2.53
2019-05-11T23:11:39.517Z,2.73
2019-05-11T23:14:05.396Z,2.70
2019-05-11T23:16:31.213Z,2.77
2019-05-11T23:18:57.320Z,2.20
2019-05-11T23:21:23.169Z,2.53
2019-05-11T23:23:49.026Z,2.53
2019-05-11T23:26:14.878Z,2.77
2019-05-11T23:28:40.730Z,2.57
2019-05-11T23:31:08.901Z,2.63
2019-05-11T23:33:34.393Z,2.57
2019-05-11T23:36:00.300Z,2.73
2019-05-11T23:38:28.134Z,2.70
2019-05-11T23:40:53.922Z,2.87
2019-05-11T23:43:19.881Z,3.10
2019-05-11T23:45:45.793Z,3.20
2019-05-11T23:48:11.646Z,3.50
2019-05-11T23:50:38.867Z,3.70
2019-05-11T23:53:06.826Z,3.40
2019-05-11T23:55:32.658Z,3.43
2019-05-11T23:57:58.506Z,3.00
